createdAt,value
2023-02-21T00:01:58.080Z,10.11
2023-02-21T00:07:33.989Z,10.08
2023-02-21T00:13:02.023Z,10.08
2023-02-21T00:18:32.143Z,10.05
2023-02-21T00:23:56.508Z,10.01
2023-02-21T00:29:23.358Z,9.96
2023-02-21T00:35:08.010Z,9.94
2023-02-21T00:40:44.863Z,9.92
2023-02-21T00:46:25.244Z,9.89
2023-02-21T00:51:51.287Z,9.91
2023-02-21T00:57:15.361Z,9.92
2023-02-21T01:02:41.132Z,9.94
2023-02-21T01:08:14.524Z,9.92
2023-02-21T01:13:37.889Z,9.91
2023-02-21T01:19:04.213Z,9.88
2023-02-21T01:24:39.535Z,9.82
2023-02-21T01:30:01.794Z,9.82
2023-02-21T01:35:25.647Z,9.82
2023-02-21T01:40:48.502Z,9.79
2023-02-21T01:46:49.341Z,9.77
2023-02-21T01:52:13.546Z,9.73
2023-02-21T01:57:41.978Z,9.68
2023-02-21T02:03:14.129Z,9.62
2023-02-21T02:08:42.580Z,9.60
2023-02-21T02:14:34.707Z,9.55
2023-02-21T02:20:33.043Z,9.50
2023-02-21T02:26:38.179Z,9.45
2023-02-21T02:32:20.176Z,9.43
2023-02-21T02:37:37.407Z,9.46
2023-02-21T02:43:21.843Z,9.50
2023-02-21T02:48:36.059Z,9.50
2023-02-21T02:53:41.570Z,9.51
2023-02-21T02:58:56.482Z,9.51
2023-02-21T03:04:41.804Z,9.54
2023-02-21T03:10:29.412Z,9.53
2023-02-21T03:16:07.525Z,9.53
2023-02-21T03:21:28.690Z,9.54
2023-02-21T03:27:21.567Z,9.55
2023-02-21T03:32:48.430Z,9.55
2023-02-21T03:38:27.116Z,9.56
2023-02-21T03:43:45.019Z,9.56
2023-02-21T03:48:52.476Z,9.57
2023-02-21T03:54:02.776Z,9.57
2023-02-21T03:59:17.053Z,9.56
2023-02-21T04:04:43.695Z,9.58
2023-02-21T04:09:51.903Z,9.57
2023-02-21T04:15:10.712Z,9.57
2023-02-21T04:20:16.777Z,9.59
2023-02-21T04:25:26.749Z,9.60
2023-02-21T04:30:37.553Z,9.61
2023-02-21T04:35:55.239Z,9.63
2023-02-21T04:41:04.174Z,9.65
2023-02-21T04:46:10.897Z,9.69
2023-02-21T04:51:31.071Z,9.72
2023-02-21T04:56:45.875Z,9.73
2023-02-21T05:01:51.495Z,9.72
2023-02-21T05:07:06.299Z,9.68
2023-02-21T05:12:31.180Z,9.59
2023-02-21T05:17:39.522Z,9.52
2023-02-21T05:22:44.346Z,9.47
2023-02-21T05:27:50.260Z,9.42
2023-02-21T05:32:55.920Z,9.38
2023-02-21T05:38:05.868Z,9.33
2023-02-21T05:43:12.086Z,9.30
2023-02-21T05:48:20.422Z,9.30
2023-02-21T05:53:28.790Z,9.33
2023-02-21T05:59:37.982Z,9.39
2023-02-21T06:06:06.462Z,9.48
2023-02-21T06:12:32.616Z,9.55
2023-02-21T06:18:58.363Z,9.68
2023-02-21T06:25:17.433Z,9.81
2023-02-21T06:30:48.726Z,9.91
2023-02-21T06:35:58.095Z,9.95
2023-02-21T06:41:08.560Z,9.99
2023-02-21T06:46:39.837Z,9.98
2023-02-21T06:51:54.317Z,9.96
2023-02-21T06:57:05.996Z,9.93
2023-02-21T07:02:18.885Z,9.94
2023-02-21T07:07:43.953Z,9.98
2023-02-21T07:13:11.028Z,10.04
2023-02-21T07:18:38.965Z,10.09
2023-02-21T07:23:48.362Z,10.16
2023-02-21T07:28:53.761Z,10.28
2023-02-21T07:34:02.076Z,10.37
2023-02-21T07:39:18.951Z,10.42
2023-02-21T07:44:43.294Z,10.36
2023-02-21T07:50:01.564Z,10.22
2023-02-21T07:55:16.377Z,10.14
2023-02-21T08:00:25.822Z,10.06
2023-02-21T08:05:55.809Z,10.04
2023-02-21T08:11:05.872Z,10.10
2023-02-21T08:16:13.931Z,10.14
2023-02-21T08:21:19.069Z,10.16
2023-02-21T08:26:24.189Z,10.24
2023-02-21T08:31:29.281Z,10.39
2023-02-21T08:36:42.706Z,10.55
2023-02-21T08:41:52.892Z,10.54
2023-02-21T08:46:59.240Z,10.25
2023-02-21T08:52:04.387Z,10.06
2023-02-21T08:57:18.782Z,10.11
2023-02-21T09:02:33.237Z,10.48
2023-02-21T09:07:42.373Z,10.66
2023-02-21T09:12:50.403Z,10.58
2023-02-21T09:17:56.271Z,10.49
2023-02-21T09:23:00.530Z,10.46
2023-02-21T09:28:11.018Z,10.43
2023-02-21T09:33:24.852Z,10.50
2023-02-21T09:38:31.587Z,10.64
2023-02-21T09:43:48.875Z,10.76
2023-02-21T09:48:53.554Z,10.87
2023-02-21T09:53:58.858Z,11.04
2023-02-21T09:59:04.222Z,11.29
2023-02-21T10:04:35.735Z,11.59
2023-02-21T10:10:03.928Z,11.81
2023-02-21T10:15:42.435Z,12.13
2023-02-21T10:20:55.239Z,12.43
2023-02-21T10:26:07.773Z,12.63
2023-02-21T10:31:21.906Z,12.81
2023-02-21T10:36:31.057Z,12.95
2023-02-21T10:42:03.678Z,12.92
2023-02-21T10:48:14.669Z,12.73
2023-02-21T10:53:48.393Z,12.63
2023-02-21T10:59:11.845Z,12.47
2023-02-21T11:04:59.282Z,12.29
2023-02-21T11:10:55.093Z,11.99
2023-02-21T11:16:20.109Z,11.52
2023-02-21T11:21:48.720Z,11.32
2023-02-21T11:26:57.556Z,11.30
2023-02-21T11:32:26.616Z,11.38
2023-02-21T11:38:28.167Z,11.48
2023-02-21T11:43:57.489Z,11.59
2023-02-21T11:50:02.225Z,11.72
2023-02-21T11:56:02.637Z,11.99
2023-02-21T12:01:44.103Z,12.25
2023-02-21T12:07:36.585Z,12.30
2023-02-21T12:13:46.286Z,12.18
2023-02-21T12:20:15.627Z,11.99
2023-02-21T12:26:59.749Z,11.65
2023-02-21T12:33:26.058Z,11.50
2023-02-21T12:39:40.501Z,11.44
2023-02-21T12:46:13.909Z,11.41
2023-02-21T12:51:45.126Z,11.38
2023-02-21T12:57:14.055Z,11.37
2023-02-21T13:03:28.068Z,11.52
2023-02-21T13:15:38.188Z,11.65
2023-02-21T13:21:39.796Z,11.73
2023-02-21T13:28:05.751Z,11.78
2023-02-21T13:40:55.651Z,12.26
2023-02-21T13:47:17.178Z,12.53
2023-02-21T13:53:13.513Z,12.44
2023-02-21T13:58:38.769Z,12.22
2023-02-21T14:03:46.886Z,12.18
2023-02-21T14:09:02.074Z,12.14
2023-02-21T14:14:52.974Z,12.19
2023-02-21T14:20:28.707Z,12.23
2023-02-21T14:25:44.893Z,12.44
2023-02-21T14:31:54.749Z,12.71
2023-02-21T14:38:34.730Z,12.83
2023-02-21T14:45:04.346Z,12.68
2023-02-21T14:51:37.761Z,12.28
2023-02-21T14:57:50.021Z,11.92
2023-02-21T15:03:19.023Z,11.71
2023-02-21T15:08:26.517Z,11.54
2023-02-21T15:13:36.348Z,11.40
2023-02-21T15:19:06.815Z,11.28
2023-02-21T15:24:17.002Z,11.18
2023-02-21T15:29:21.774Z,11.19
2023-02-21T15:34:38.744Z,11.20
2023-02-21T15:39:57.673Z,11.13
2023-02-21T15:45:06.907Z,11.03
2023-02-21T15:50:48.499Z,10.96
2023-02-21T15:56:48.196Z,10.86
2023-02-21T16:02:26.757Z,10.69
2023-02-21T16:07:50.750Z,10.49
2023-02-21T16:13:02.750Z,10.30
2023-02-21T16:18:30.945Z,10.17
2023-02-21T16:23:46.699Z,10.05
2023-02-21T16:28:52.348Z,9.93
2023-02-21T16:33:57.896Z,9.82
2023-02-21T16:39:09.140Z,9.76
2023-02-21T16:44:31.875Z,9.73
2023-02-21T16:49:39.839Z,9.66
2023-02-21T16:55:21.880Z,9.58
2023-02-21T17:00:26.595Z,9.51
2023-02-21T17:05:36.284Z,9.43
2023-02-21T17:10:50.981Z,9.32
2023-02-21T17:16:09.225Z,9.22
2023-02-21T17:21:17.408Z,9.13
2023-02-21T17:26:24.497Z,9.02
2023-02-21T17:31:39.847Z,8.92
2023-02-21T17:36:47.013Z,8.85
2023-02-21T17:42:00.987Z,8.81
2023-02-21T17:47:09.652Z,8.76
2023-02-21T17:52:18.622Z,8.70
2023-02-21T17:57:31.553Z,8.63
2023-02-21T18:03:02.381Z,8.56
2023-02-21T18:09:06.179Z,8.48
2023-02-21T18:15:04.757Z,8.38
2023-02-21T18:20:26.186Z,8.27
2023-02-21T18:25:39.868Z,8.19
2023-02-21T18:30:52.160Z,8.11
2023-02-21T18:36:15.260Z,8.04
2023-02-21T18:41:27.770Z,7.98
2023-02-21T18:46:52.151Z,7.92
2023-02-21T18:52:05.041Z,7.83
2023-02-21T18:57:18.403Z,7.72
2023-02-21T19:02:25.871Z,7.63
2023-02-21T19:08:15.960Z,7.54
2023-02-21T19:13:50.704Z,7.52
2023-02-21T19:19:05.411Z,7.54
2023-02-21T19:24:34.348Z,7.55
2023-02-21T19:29:42.546Z,7.51
2023-02-21T19:41:38.897Z,7.29
2023-02-21T19:46:51.535Z,7.16
2023-02-21T19:52:05.342Z,7.05
2023-02-21T19:57:24.164Z,6.98
2023-02-21T20:02:37.938Z,6.94
2023-02-21T20:07:52.026Z,6.89
2023-02-21T20:13:03.701Z,6.84
2023-02-21T20:18:37.520Z,6.79
2023-02-21T20:23:46.924Z,6.75
2023-02-21T20:28:54.766Z,6.69
2023-02-21T20:34:10.386Z,6.63
2023-02-21T20:39:23.141Z,6.56
2023-02-21T20:44:32.691Z,6.46
2023-02-21T20:49:50.093Z,6.42
2023-02-21T20:55:03.399Z,6.40
2023-02-21T21:00:11.288Z,6.36
2023-02-21T21:05:54.679Z,6.30
2023-02-21T21:11:43.447Z,6.21
2023-02-21T21:16:53.383Z,6.14
2023-02-21T21:22:07.429Z,6.09
2023-02-21T21:27:15.773Z,6.03
2023-02-21T21:33:03.148Z,5.96
2023-02-21T21:38:09.011Z,5.93
2023-02-21T21:43:19.046Z,5.86
2023-02-21T21:48:27.300Z,5.82
2023-02-21T21:53:35.435Z,5.81
2023-02-21T21:58:44.416Z,5.79
2023-02-21T22:04:13.182Z,5.77
2023-02-21T22:09:26.694Z,5.75
2023-02-21T22:14:39.125Z,5.72
2023-02-21T22:19:47.971Z,5.69
2023-02-21T22:24:51.818Z,5.63
2023-02-21T22:29:58.022Z,5.59
2023-02-21T22:35:18.579Z,5.57
2023-02-21T22:40:24.892Z,5.57
2023-02-21T22:45:35.449Z,5.57
2023-02-21T22:51:02.895Z,5.54
2023-02-21T22:56:17.109Z,5.51
2023-02-21T23:01:28.476Z,5.47
2023-02-21T23:06:44.980Z,5.43
2023-02-21T23:11:51.724Z,5.39
2023-02-21T23:16:59.887Z,5.32
2023-02-21T23:22:36.900Z,5.20
2023-02-21T23:28:18.809Z,5.08
2023-02-21T23:34:05.185Z,5.00
2023-02-21T23:39:17.419Z,4.95
2023-02-21T23:44:25.149Z,4.89
2023-02-21T23:49:35.226Z,4.82
2023-02-21T23:54:41.431Z,4.79
2023-02-21T23:59:45.581Z,4.75
